sensor_id;sensor_type;location;lat;lon;timestamp;pressure;altitude;pressure_sealevel;temperature;humidity
75157;BME280;63736;50.076;8.198;2023-04-26T00:01:39;99680.63;;;2.39;100.00
75157;BME280;63736;50.076;8.198;2023-04-26T00:04:04;99682.34;;;2.40;100.00
75157;BME280;63736;50.076;8.198;2023-04-26T00:06:29;99685.97;;;2.38;100.00
75157;BME280;63736;50.076;8.198;2023-04-26T00:08:55;99691.41;;;2.35;100.00
75157;BME280;63736;50.076;8.198;2023-04-26T00:11:20;99692.41;;;2.32;100.00
75157;BME280;63736;50.076;8.198;2023-04-26T00:13:45;99691.41;;;2.35;100.00
75157;BME280;63736;50.076;8.198;2023-04-26T00:16:12;99688.63;;;2.38;100.00
75157;BME280;63736;50.076;8.198;2023-04-26T00:18:38;99686.06;;;2.36;100.00
75157;BME280;63736;50.076;8.198;2023-04-26T00:21:03;99692.25;;;2.35;100.00
75157;BME280;63736;50.076;8.198;2023-04-26T00:23:29;99691.50;;;2.33;100.00
75157;BME280;63736;50.076;8.198;2023-04-26T00:25:55;99683.66;;;2.31;100.00
75157;BME280;63736;50.076;8.198;2023-04-26T00:28:21;99689.13;;;2.27;100.00
75157;BME280;63736;50.076;8.198;2023-04-26T00:30:46;99688.34;;;2.25;100.00
75157;BME280;63736;50.076;8.198;2023-04-26T00:33:13;99692.06;;;2.21;100.00
75157;BME280;63736;50.076;8.198;2023-04-26T00:35:38;99687.06;;;2.14;100.00
75157;BME280;63736;50.076;8.198;2023-04-26T00:38:04;99686.50;;;2.08;100.00
75157;BME280;63736;50.076;8.198;2023-04-26T00:40:29;99684.22;;;2.00;100.00
75157;BME280;63736;50.076;8.198;2023-04-26T00:42:57;99681.00;;;1.93;100.00
75157;BME280;63736;50.076;8.198;2023-04-26T00:45:23;99692.69;;;1.88;100.00
75157;BME280;63736;50.076;8.198;2023-04-26T00:47:49;99692.03;;;1.83;100.00
75157;BME280;63736;50.076;8.198;2023-04-26T00:50:15;99686.13;;;1.77;100.00
75157;BME280;63736;50.076;8.198;2023-04-26T00:52:40;99687.19;;;1.73;100.00
75157;BME280;63736;50.076;8.198;2023-04-26T00:55:06;99687.97;;;1.75;100.00
75157;BME280;63736;50.076;8.198;2023-04-26T00:57:32;99687.88;;;1.77;100.00
75157;BME280;63736;50.076;8.198;2023-04-26T00:59:57;99684.25;;;1.79;100.00
75157;BME280;63736;50.076;8.198;2023-04-26T01:02:23;99681.34;;;1.86;100.00
75157;BME280;63736;50.076;8.198;2023-04-26T01:04:48;99678.28;;;1.95;100.00
75157;BME280;63736;50.076;8.198;2023-04-26T01:07:14;99684.22;;;2.00;100.00
75157;BME280;63736;50.076;8.198;2023-04-26T01:09:39;99677.19;;;2.01;100.00
75157;BME280;63736;50.076;8.198;2023-04-26T01:12:06;99677.09;;;2.02;100.00
75157;BME280;63736;50.076;8.198;2023-04-26T01:14:32;99676.19;;;2.03;100.00
75157;BME280;63736;50.076;8.198;2023-04-26T01:17:01;99682.22;;;2.05;100.00
75157;BME280;63736;50.076;8.198;2023-04-26T01:19:26;99681.03;;;2.12;100.00
75157;BME280;63736;50.076;8.198;2023-04-26T01:21:52;99681.59;;;2.19;100.00
75157;BME280;63736;50.076;8.198;2023-04-26T01:24:17;99677.88;;;2.23;100.00
75157;BME280;63736;50.076;8.198;2023-04-26T01:26:43;99684.59;;;2.30;100.00
75157;BME280;63736;50.076;8.198;2023-04-26T01:29:20;99680.78;;;2.36;100.00
75157;BME280;63736;50.076;8.198;2023-04-26T01:31:46;99675.34;;;2.39;100.00
75157;BME280;63736;50.076;8.198;2023-04-26T01:34:12;99675.16;;;2.44;100.00
75157;BME280;63736;50.076;8.198;2023-04-26T01:36:37;99686.50;;;2.46;100.00
75157;BME280;63736;50.076;8.198;2023-04-26T01:39:03;99682.78;;;2.50;100.00
75157;BME280;63736;50.076;8.198;2023-04-26T01:41:29;99681.59;;;2.56;100.00
75157;BME280;63736;50.076;8.198;2023-04-26T01:43:54;99677.84;;;2.61;100.00
75157;BME280;63736;50.076;8.198;2023-04-26T01:46:20;99684.50;;;2.69;100.00
75157;BME280;63736;50.076;8.198;2023-04-26T01:48:45;99687.84;;;2.72;100.00
75157;BME280;63736;50.076;8.198;2023-04-26T01:51:11;99689.34;;;2.78;100.00
75157;BME280;63736;50.076;8.198;2023-04-26T01:53:36;99685.69;;;2.80;100.00
75157;BME280;63736;50.076;8.198;2023-04-26T01:56:02;99684.84;;;2.80;100.00
75157;BME280;63736;50.076;8.198;2023-04-26T01:58:28;99683.22;;;2.77;100.00
75157;BME280;63736;50.076;8.198;2023-04-26T02:00:53;99685.06;;;2.75;100.00
75157;BME280;63736;50.076;8.198;2023-04-26T02:03:19;99688.00;;;2.69;100.00
75157;BME280;63736;50.076;8.198;2023-04-26T02:05:45;99688.16;;;2.66;100.00
75157;BME280;63736;50.076;8.198;2023-04-26T02:08:11;99683.97;;;2.62;100.00
75157;BME280;63736;50.076;8.198;2023-04-26T02:10:36;99684.03;;;2.60;100.00
75157;BME280;63736;50.076;8.198;2023-04-26T02:13:01;99686.69;;;2.60;100.00
75157;BME280;63736;50.076;8.198;2023-04-26T02:15:27;99683.88;;;2.63;100.00
75157;BME280;63736;50.076;8.198;2023-04-26T02:17:52;99685.59;;;2.64;100.00
75157;BME280;63736;50.076;8.198;2023-04-26T02:20:19;99684.75;;;2.64;100.00
75157;BME280;63736;50.076;8.198;2023-04-26T02:22:45;99692.72;;;2.62;100.00
75157;BME280;63736;50.076;8.198;2023-04-26T02:25:10;99682.41;;;2.58;100.00
75157;BME280;63736;50.076;8.198;2023-04-26T02:27:36;99680.84;;;2.54;100.00
75157;BME280;63736;50.076;8.198;2023-04-26T02:30:02;99691.53;;;2.51;100.00
75157;BME280;63736;50.076;8.198;2023-04-26T02:32:27;99686.50;;;2.46;100.00
75157;BME280;63736;50.076;8.198;2023-04-26T02:34:53;99690.13;;;2.43;100.00
75157;BME280;63736;50.076;8.198;2023-04-26T02:37:18;99689.19;;;2.44;100.00
75157;BME280;63736;50.076;8.198;2023-04-26T02:39:43;99683.91;;;2.44;100.00
75157;BME280;63736;50.076;8.198;2023-04-26T02:42:09;99692.69;;;2.45;100.00
75157;BME280;63736;50.076;8.198;2023-04-26T02:44:35;99680.44;;;2.44;100.00
75157;BME280;63736;50.076;8.198;2023-04-26T02:47:01;99684.97;;;2.40;100.00
75157;BME280;63736;50.076;8.198;2023-04-26T02:49:26;99689.50;;;2.38;100.00
75157;BME280;63736;50.076;8.198;2023-04-26T02:51:52;99687.69;;;2.39;100.00
75157;BME280;63736;50.076;8.198;2023-04-26T02:54:17;99679.78;;;2.39;100.00
75157;BME280;63736;50.076;8.198;2023-04-26T02:56:42;99685.13;;;2.37;100.00
75157;BME280;63736;50.076;8.198;2023-04-26T02:59:08;99686.13;;;2.35;100.00
75157;BME280;63736;50.076;8.198;2023-04-26T03:01:35;99682.59;;;2.36;100.00
75157;BME280;63736;50.076;8.198;2023-04-26T03:04:01;99686.91;;;2.37;100.00
75157;BME280;63736;50.076;8.198;2023-04-26T03:06:26;99678.31;;;2.33;100.00
75157;BME280;63736;50.076;8.198;2023-04-26T03:08:52;99678.44;;;2.30;100.00
75157;BME280;63736;50.076;8.198;2023-04-26T03:11:17;99676.13;;;2.24;100.00
75157;BME280;63736;50.076;8.198;2023-04-26T03:13:43;99667.63;;;2.17;100.00
75157;BME280;63736;50.076;8.198;2023-04-26T03:16:08;99672.19;;;2.13;100.00
75157;BME280;63736;50.076;8.198;2023-04-26T03:18:33;99674.13;;;2.10;100.00
75157;BME280;63736;50.076;8.198;2023-04-26T03:20:58;99675.88;;;2.09;100.00
75157;BME280;63736;50.076;8.198;2023-04-26T03:23:24;99678.50;;;2.09;100.00
75157;BME280;63736;50.076;8.198;2023-04-26T03:25:50;99681.16;;;2.09;100.00
75157;BME280;63736;50.076;8.198;2023-04-26T03:28:16;99682.09;;;2.08;100.00
75157;BME280;63736;50.076;8.198;2023-04-26T03:30:41;99674.97;;;2.10;100.00
75157;BME280;63736;50.076;8.198;2023-04-26T03:33:06;99676.59;;;2.13;100.00
75157;BME280;63736;50.076;8.198;2023-04-26T03:35:32;99674.75;;;2.15;100.00
75157;BME280;63736;50.076;8.198;2023-04-26T03:37:57;99675.59;;;2.15;100.00
75157;BME280;63736;50.076;8.198;2023-04-26T03:40:22;99670.31;;;2.15;100.00
75157;BME280;63736;50.076;8.198;2023-04-26T03:42:47;99671.13;;;2.18;100.00
75157;BME280;63736;50.076;8.198;2023-04-26T03:45:13;99670.97;;;2.21;100.00
75157;BME280;63736;50.076;8.198;2023-04-26T03:47:38;99669.13;;;2.23;100.00
75157;BME280;63736;50.076;8.198;2023-04-26T03:50:03;99674.25;;;2.26;100.00
75157;BME280;63736;50.076;8.198;2023-04-26T03:52:29;99670.69;;;2.27;100.00
75157;BME280;63736;50.076;8.198;2023-04-26T03:54:54;99673.16;;;2.30;100.00
75157;BME280;63736;50.076;8.198;2023-04-26T03:57:20;99667.84;;;2.31;100.00
75157;BME280;63736;50.076;8.198;2023-04-26T03:59:45;99664.34;;;2.31;100.00
75157;BME280;63736;50.076;8.198;2023-04-26T04:02:10;99663.69;;;2.26;100.00
75157;BME280;63736;50.076;8.198;2023-04-26T04:04:36;99661.59;;;2.15;100.00
75157;BME280;63736;50.076;8.198;2023-04-26T04:07:01;99669.19;;;2.02;100.00
75157;BME280;63736;50.076;8.198;2023-04-26T04:09:26;99663.78;;;1.86;100.00
75157;BME280;63736;50.076;8.198;2023-04-26T04:11:51;99664.41;;;1.72;100.00
75157;BME280;63736;50.076;8.198;2023-04-26T04:14:17;99669.22;;;1.62;100.00
75157;BME280;63736;50.076;8.198;2023-04-26T04:16:42;99671.50;;;1.51;100.00
75157;BME280;63736;50.076;8.198;2023-04-26T04:19:07;99674.59;;;1.40;100.00
75157;BME280;63736;50.076;8.198;2023-04-26T04:21:33;99675.78;;;1.33;100.00
75157;BME280;63736;50.076;8.198;2023-04-26T04:23:58;99682.97;;;1.29;100.00
75157;BME280;63736;50.076;8.198;2023-04-26T04:26:24;99687.50;;;1.26;100.00
75157;BME280;63736;50.076;8.198;2023-04-26T04:28:50;99685.78;;;1.25;100.00
75157;BME280;63736;50.076;8.198;2023-04-26T04:31:16;99694.53;;;1.25;100.00
75157;BME280;63736;50.076;8.198;2023-04-26T04:33:41;99691.91;;;1.25;100.00
75157;BME280;63736;50.076;8.198;2023-04-26T04:36:07;99690.94;;;1.28;100.00
75157;BME280;63736;50.076;8.198;2023-04-26T04:38:32;99691.59;;;1.33;100.00
75157;BME280;63736;50.076;8.198;2023-04-26T04:40:57;99699.22;;;1.39;100.00
75157;BME280;63736;50.076;8.198;2023-04-26T04:43:23;99705.97;;;1.45;100.00
75157;BME280;63736;50.076;8.198;2023-04-26T04:45:48;99705.84;;;1.48;100.00
75157;BME280;63736;50.076;8.198;2023-04-26T04:48:14;99709.06;;;1.55;100.00
75157;BME280;63736;50.076;8.198;2023-04-26T04:50:39;99717.56;;;1.61;100.00
75157;BME280;63736;50.076;8.198;2023-04-26T04:53:06;99717.28;;;1.68;100.00
75157;BME280;63736;50.076;8.198;2023-04-26T04:55:33;99719.50;;;1.77;100.00
75157;BME280;63736;50.076;8.198;2023-04-26T04:57:58;99712.06;;;1.87;100.00
75157;BME280;63736;50.076;8.198;2023-04-26T05:00:23;99714.19;;;1.97;100.00
75157;BME280;63736;50.076;8.198;2023-04-26T05:02:49;99713.75;;;2.07;100.00
75157;BME280;63736;50.076;8.198;2023-04-26T05:05:14;99712.06;;;2.25;100.00
75157;BME280;63736;50.076;8.198;2023-04-26T05:07:39;99722.34;;;3.04;100.00
75157;BME280;63736;50.076;8.198;2023-04-26T05:10:05;99707.22;;;4.26;100.00
75157;BME280;63736;50.076;8.198;2023-04-26T05:12:31;99714.38;;;5.63;100.00
75157;BME280;63736;50.076;8.198;2023-04-26T05:14:57;99711.41;;;6.96;100.00
75157;BME280;63736;50.076;8.198;2023-04-26T05:17:22;99692.56;;;8.17;100.00
75157;BME280;63736;50.076;8.198;2023-04-26T05:19:47;99694.88;;;9.31;94.30
75157;BME280;63736;50.076;8.198;2023-04-26T05:22:13;99698.00;;;10.40;83.11
75157;BME280;63736;50.076;8.198;2023-04-26T05:24:47;99696.81;;;11.41;76.79
75157;BME280;63736;50.076;8.198;2023-04-26T05:27:12;99697.88;;;12.33;71.13
75157;BME280;63736;50.076;8.198;2023-04-26T05:29:38;99695.06;;;13.15;66.46
75157;BME280;63736;50.076;8.198;2023-04-26T05:32:03;99704.53;;;13.96;62.11
75157;BME280;63736;50.076;8.198;2023-04-26T05:34:29;99704.50;;;14.71;58.79
75157;BME280;63736;50.076;8.198;2023-04-26T05:36:54;99706.41;;;15.51;55.28
75157;BME280;63736;50.076;8.198;2023-04-26T05:39:19;99713.59;;;16.13;50.52
75157;BME280;63736;50.076;8.198;2023-04-26T05:41:45;99705.41;;;16.82;47.85
75157;BME280;63736;50.076;8.198;2023-04-26T05:44:12;99710.06;;;17.47;46.72
75157;BME280;63736;50.076;8.198;2023-04-26T05:46:37;99712.00;;;18.20;44.28
75157;BME280;63736;50.076;8.198;2023-04-26T05:49:03;99709.28;;;18.68;43.09
75157;BME280;63736;50.076;8.198;2023-04-26T05:51:28;99712.66;;;19.24;40.23
75157;BME280;63736;50.076;8.198;2023-04-26T05:53:53;99717.16;;;19.70;39.34
75157;BME280;63736;50.076;8.198;2023-04-26T05:56:18;99719.88;;;20.08;38.49
75157;BME280;63736;50.076;8.198;2023-04-26T05:58:44;99722.28;;;20.48;37.76
75157;BME280;63736;50.076;8.198;2023-04-26T06:01:09;99734.25;;;20.84;36.91
75157;BME280;63736;50.076;8.198;2023-04-26T06:03:36;99731.78;;;21.25;35.89
75157;BME280;63736;50.076;8.198;2023-04-26T06:06:02;99729.56;;;21.57;35.50
75157;BME280;63736;50.076;8.198;2023-04-26T06:08:27;99742.19;;;21.65;33.96
75157;BME280;63736;50.076;8.198;2023-04-26T06:10:52;99730.53;;;21.71;33.67
75157;BME280;63736;50.076;8.198;2023-04-26T06:13:18;99733.28;;;22.00;33.04
75157;BME280;63736;50.076;8.198;2023-04-26T06:15:43;99731.09;;;22.52;28.36
75157;BME280;63736;50.076;8.198;2023-04-26T06:18:09;99737.06;;;21.77;27.44
75157;BME280;63736;50.076;8.198;2023-04-26T06:20:34;99740.78;;;20.89;26.47
75157;BME280;63736;50.076;8.198;2023-04-26T06:23:00;99744.50;;;20.37;28.53
75157;BME280;63736;50.076;8.198;2023-04-26T06:25:25;99738.78;;;20.32;28.85
75157;BME280;63736;50.076;8.198;2023-04-26T06:27:50;99743.84;;;20.50;28.39
75157;BME280;63736;50.076;8.198;2023-04-26T06:30:16;99743.53;;;20.59;28.64
75157;BME280;63736;50.076;8.198;2023-04-26T06:32:41;99742.06;;;21.08;27.79
75157;BME280;63736;50.076;8.198;2023-04-26T06:35:07;99735.41;;;21.76;27.85
75157;BME280;63736;50.076;8.198;2023-04-26T06:37:33;99738.88;;;22.61;27.22
75157;BME280;63736;50.076;8.198;2023-04-26T06:39:58;99739.16;;;23.55;25.93
75157;BME280;63736;50.076;8.198;2023-04-26T06:42:23;99736.03;;;23.92;24.33
75157;BME280;63736;50.076;8.198;2023-04-26T06:44:49;99738.94;;;22.75;23.79
75157;BME280;63736;50.076;8.198;2023-04-26T06:47:14;99733.94;;;22.37;24.26
75157;BME280;63736;50.076;8.198;2023-04-26T06:49:39;99724.75;;;22.44;24.94
75157;BME280;63736;50.076;8.198;2023-04-26T06:52:05;99742.63;;;22.54;23.98
75157;BME280;63736;50.076;8.198;2023-04-26T06:54:31;99732.06;;;22.86;24.39
75157;BME280;63736;50.076;8.198;2023-04-26T06:56:57;99733.38;;;22.48;23.14
75157;BME280;63736;50.076;8.198;2023-04-26T06:59:22;99738.59;;;22.50;24.11
75157;BME280;63736;50.076;8.198;2023-04-26T07:01:47;99738.63;;;23.12;24.46
75157;BME280;63736;50.076;8.198;2023-04-26T07:04:12;99736.16;;;23.17;23.28
75157;BME280;63736;50.076;8.198;2023-04-26T07:06:39;99749.56;;;22.63;23.20
75157;BME280;63736;50.076;8.198;2023-04-26T07:09:04;99744.94;;;21.93;23.56
75157;BME280;63736;50.076;8.198;2023-04-26T07:11:30;99748.59;;;22.36;24.59
75157;BME280;63736;50.076;8.198;2023-04-26T07:13:56;99744.56;;;23.35;24.20
75157;BME280;63736;50.076;8.198;2023-04-26T07:16:21;99747.09;;;23.84;23.41
75157;BME280;63736;50.076;8.198;2023-04-26T07:18:47;99746.06;;;24.18;22.54
75157;BME280;63736;50.076;8.198;2023-04-26T07:21:13;99745.50;;;24.62;23.06
75157;BME280;63736;50.076;8.198;2023-04-26T07:23:38;99740.16;;;25.26;22.37
75157;BME280;63736;50.076;8.198;2023-04-26T07:26:03;99732.78;;;24.94;21.65
75157;BME280;63736;50.076;8.198;2023-04-26T07:28:32;99738.91;;;23.37;22.55
75157;BME280;63736;50.076;8.198;2023-04-26T07:30:58;99737.84;;;23.18;23.54
75157;BME280;63736;50.076;8.198;2023-04-26T07:33:24;99733.25;;;22.63;23.66
75157;BME280;63736;50.076;8.198;2023-04-26T07:35:54;99729.47;;;21.94;24.40
75157;BME280;63736;50.076;8.198;2023-04-26T07:38:20;99735.03;;;22.14;24.75
75157;BME280;63736;50.076;8.198;2023-04-26T07:40:46;99730.81;;;21.55;24.92
75157;BME280;63736;50.076;8.198;2023-04-26T07:43:11;99728.00;;;21.05;25.09
75157;BME280;63736;50.076;8.198;2023-04-26T07:45:37;99729.63;;;21.21;24.66
75157;BME280;63736;50.076;8.198;2023-04-26T07:48:02;99728.03;;;21.98;24.13
75157;BME280;63736;50.076;8.198;2023-04-26T07:50:28;99721.91;;;23.21;23.37
75157;BME280;63736;50.076;8.198;2023-04-26T07:52:53;99724.66;;;22.66;23.98
75157;BME280;63736;50.076;8.198;2023-04-26T07:55:18;99724.75;;;22.93;22.95
75157;BME280;63736;50.076;8.198;2023-04-26T07:57:43;99717.97;;;23.98;22.47
75157;BME280;63736;50.076;8.198;2023-04-26T08:00:09;99726.34;;;23.83;21.87
75157;BME280;63736;50.076;8.198;2023-04-26T08:02:35;99729.19;;;22.52;22.17
75157;BME280;63736;50.076;8.198;2023-04-26T08:05:00;99734.66;;;21.02;23.59
75157;BME280;63736;50.076;8.198;2023-04-26T08:07:25;99738.72;;;19.87;25.33
75157;BME280;63736;50.076;8.198;2023-04-26T08:09:54;99745.03;;;18.78;26.39
75157;BME280;63736;50.076;8.198;2023-04-26T08:12:19;99742.63;;;17.71;27.89
75157;BME280;63736;50.076;8.198;2023-04-26T08:14:46;99746.63;;;17.09;28.75
75157;BME280;63736;50.076;8.198;2023-04-26T08:17:11;99738.25;;;16.69;29.56
75157;BME280;63736;50.076;8.198;2023-04-26T08:19:36;99745.72;;;16.41;30.10
75157;BME280;63736;50.076;8.198;2023-04-26T08:22:02;99745.66;;;15.98;30.80
75157;BME280;63736;50.076;8.198;2023-04-26T08:24:28;99745.06;;;15.86;30.80
75157;BME280;63736;50.076;8.198;2023-04-26T08:26:53;99736.66;;;16.15;30.51
75157;BME280;63736;50.076;8.198;2023-04-26T08:29:19;99739.06;;;17.12;29.83
75157;BME280;63736;50.076;8.198;2023-04-26T08:31:45;99737.06;;;17.39;29.63
75157;BME280;63736;50.076;8.198;2023-04-26T08:34:10;99733.19;;;18.79;28.44
75157;BME280;63736;50.076;8.198;2023-04-26T08:36:38;99735.22;;;19.78;27.15
75157;BME280;63736;50.076;8.198;2023-04-26T08:39:03;99723.69;;;19.84;26.93
75157;BME280;63736;50.076;8.198;2023-04-26T08:41:34;99732.50;;;19.63;26.72
75157;BME280;63736;50.076;8.198;2023-04-26T08:44:01;99722.63;;;19.47;27.05
75157;BME280;63736;50.076;8.198;2023-04-26T08:47:16;99722.94;;;19.06;27.87
75157;BME280;63736;50.076;8.198;2023-04-26T08:49:45;99729.44;;;18.96;28.05
75157;BME280;63736;50.076;8.198;2023-04-26T08:52:17;99725.09;;;19.10;27.88
75157;BME280;63736;50.076;8.198;2023-04-26T08:54:48;99729.91;;;18.60;27.84
75157;BME280;63736;50.076;8.198;2023-04-26T08:57:14;99729.41;;;18.09;28.35
75157;BME280;63736;50.076;8.198;2023-04-26T08:59:40;99729.13;;;17.62;29.12
75157;BME280;63736;50.076;8.198;2023-04-26T09:02:06;99718.50;;;17.44;30.26
75157;BME280;63736;50.076;8.198;2023-04-26T09:04:33;99730.59;;;18.06;29.92
75157;BME280;63736;50.076;8.198;2023-04-26T09:07:00;99724.47;;;18.69;28.79
75157;BME280;63736;50.076;8.198;2023-04-26T09:09:26;99730.69;;;18.38;29.13
75157;BME280;63736;50.076;8.198;2023-04-26T09:11:57;99725.59;;;17.95;29.69
75157;BME280;63736;50.076;8.198;2023-04-26T09:14:24;99713.63;;;17.48;30.05
75157;BME280;63736;50.076;8.198;2023-04-26T09:16:49;99717.94;;;16.91;30.02
75157;BME280;63736;50.076;8.198;2023-04-26T09:19:16;99727.19;;;16.46;31.38
75157;BME280;63736;50.076;8.198;2023-04-26T09:21:42;99727.66;;;15.98;31.88
75157;BME280;63736;50.076;8.198;2023-04-26T09:24:12;99721.00;;;15.66;32.61
75157;BME280;63736;50.076;8.198;2023-04-26T09:26:37;99718.72;;;15.53;33.07
75157;BME280;63736;50.076;8.198;2023-04-26T09:31:40;99701.94;;;16.55;31.88
75157;BME280;63736;50.076;8.198;2023-04-26T09:34:06;99697.06;;;17.51;30.64
75157;BME280;63736;50.076;8.198;2023-04-26T09:36:45;99699.22;;;17.80;29.49
75157;BME280;63736;50.076;8.198;2023-04-26T09:39:10;99697.50;;;18.04;29.22
75157;BME280;63736;50.076;8.198;2023-04-26T09:41:45;99692.69;;;18.31;28.92
75157;BME280;63736;50.076;8.198;2023-04-26T09:44:20;99698.34;;;18.92;28.67
75157;BME280;63736;50.076;8.198;2023-04-26T09:47:08;99696.34;;;18.78;28.47
75157;BME280;63736;50.076;8.198;2023-04-26T09:52:11;99699.41;;;17.54;29.94
75157;BME280;63736;50.076;8.198;2023-04-26T09:54:37;99699.75;;;17.10;30.23
75157;BME280;63736;50.076;8.198;2023-04-26T09:57:03;99706.56;;;16.71;30.89
75157;BME280;63736;50.076;8.198;2023-04-26T09:59:41;99706.56;;;16.71;31.56
75157;BME280;63736;50.076;8.198;2023-04-26T10:02:27;99705.97;;;16.94;31.16
75157;BME280;63736;50.076;8.198;2023-04-26T10:04:55;99706.69;;;17.21;31.62
75157;BME280;63736;50.076;8.198;2023-04-26T10:07:22;99695.22;;;17.35;30.65
75157;BME280;63736;50.076;8.198;2023-04-26T10:09:48;99702.31;;;17.44;30.13
75157;BME280;63736;50.076;8.198;2023-04-26T10:12:17;99700.44;;;17.53;30.47
75157;BME280;63736;50.076;8.198;2023-04-26T10:14:44;99701.44;;;17.44;30.96
75157;BME280;63736;50.076;8.198;2023-04-26T10:17:11;99698.59;;;17.21;31.39
75157;BME280;63736;50.076;8.198;2023-04-26T10:19:38;99703.09;;;17.04;31.17
75157;BME280;63736;50.076;8.198;2023-04-26T10:22:07;99698.31;;;16.89;31.16
75157;BME280;63736;50.076;8.198;2023-04-26T10:24:34;99696.78;;;16.78;30.92
75157;BME280;63736;50.076;8.198;2023-04-26T10:27:00;99687.19;;;16.76;31.48
75157;BME280;63736;50.076;8.198;2023-04-26T10:32:22;99685.75;;;16.39;30.48
75157;BME280;63736;50.076;8.198;2023-04-26T10:35:10;99686.13;;;16.60;30.48
75157;BME280;63736;50.076;8.198;2023-04-26T10:40:28;99674.72;;;16.83;31.45
75157;BME280;63736;50.076;8.198;2023-04-26T10:45:41;99663.50;;;17.21;31.21
75157;BME280;63736;50.076;8.198;2023-04-26T10:58:48;99650.75;;;17.87;29.57
75157;BME280;63736;50.076;8.198;2023-04-26T11:01:30;99651.75;;;17.94;29.82
75157;BME280;63736;50.076;8.198;2023-04-26T11:06:22;99648.25;;;18.25;29.49
75157;BME280;63736;50.076;8.198;2023-04-26T11:08:48;99653.81;;;18.32;29.27
75157;BME280;63736;50.076;8.198;2023-04-26T11:11:15;99646.06;;;18.29;29.49
75157;BME280;63736;50.076;8.198;2023-04-26T11:13:41;99634.66;;;18.42;29.14
75157;BME280;63736;50.076;8.198;2023-04-26T11:16:09;99638.03;;;18.44;28.41
75157;BME280;63736;50.076;8.198;2023-04-26T11:18:36;99640.34;;;18.55;28.30
75157;BME280;63736;50.076;8.198;2023-04-26T11:21:04;99647.19;;;18.66;28.60
75157;BME280;63736;50.076;8.198;2023-04-26T11:23:29;99628.69;;;18.78;28.49
75157;BME280;63736;50.076;8.198;2023-04-26T11:25:59;99638.94;;;18.91;28.32
75157;BME280;63736;50.076;8.198;2023-04-26T11:28:27;99638.25;;;18.89;28.14
75157;BME280;63736;50.076;8.198;2023-04-26T11:30:52;99641.94;;;18.73;27.87
75157;BME280;63736;50.076;8.198;2023-04-26T11:33:19;99642.28;;;18.70;27.88
75157;BME280;63736;50.076;8.198;2023-04-26T11:35:47;99635.06;;;18.30;27.82
75157;BME280;63736;50.076;8.198;2023-04-26T11:38:13;99635.03;;;17.82;27.65
75157;BME280;63736;50.076;8.198;2023-04-26T11:40:39;99634.25;;;17.65;28.54
75157;BME280;63736;50.076;8.198;2023-04-26T11:43:06;99632.25;;;17.34;28.76
75157;BME280;63736;50.076;8.198;2023-04-26T11:45:32;99627.88;;;17.25;28.90
75157;BME280;63736;50.076;8.198;2023-04-26T11:48:00;99619.31;;;17.05;28.61
75157;BME280;63736;50.076;8.198;2023-04-26T11:50:26;99620.47;;;17.03;28.86
75157;BME280;63736;50.076;8.198;2023-04-26T11:52:55;99624.00;;;17.03;29.13
75157;BME280;63736;50.076;8.198;2023-04-26T11:55:28;99621.13;;;17.05;29.36
75157;BME280;63736;50.076;8.198;2023-04-26T11:57:55;99621.16;;;16.96;29.48
75157;BME280;63736;50.076;8.198;2023-04-26T12:00:21;99610.31;;;16.88;29.39
75157;BME280;63736;50.076;8.198;2023-04-26T12:02:47;99611.47;;;16.77;28.75
75157;BME280;63736;50.076;8.198;2023-04-26T12:05:26;99611.97;;;16.56;29.42
75157;BME280;63736;50.076;8.198;2023-04-26T12:07:53;99610.44;;;16.54;29.50
75157;BME280;63736;50.076;8.198;2023-04-26T12:10:26;99609.09;;;16.49;29.91
75157;BME280;63736;50.076;8.198;2023-04-26T12:12:55;99607.41;;;16.57;29.76
75157;BME280;63736;50.076;8.198;2023-04-26T12:15:23;99607.56;;;16.47;29.39
75157;BME280;63736;50.076;8.198;2023-04-26T12:18:06;99611.72;;;16.33;29.96
75157;BME280;63736;50.076;8.198;2023-04-26T12:20:40;99607.56;;;16.47;29.97
75157;BME280;63736;50.076;8.198;2023-04-26T12:23:07;99598.47;;;15.97;30.24
75157;BME280;63736;50.076;8.198;2023-04-26T12:25:34;99606.91;;;16.02;31.42
75157;BME280;63736;50.076;8.198;2023-04-26T12:28:02;99611.22;;;16.29;31.32
75157;BME280;63736;50.076;8.198;2023-04-26T12:30:28;99616.66;;;16.54;30.79
75157;BME280;63736;50.076;8.198;2023-04-26T12:32:54;99605.75;;;16.64;31.02
75157;BME280;63736;50.076;8.198;2023-04-26T12:35:20;99602.22;;;16.72;30.86
75157;BME280;63736;50.076;8.198;2023-04-26T12:37:45;99604.75;;;16.90;30.55
75157;BME280;63736;50.076;8.198;2023-04-26T12:40:12;99603.44;;;17.02;30.34
75157;BME280;63736;50.076;8.198;2023-04-26T12:42:37;99610.03;;;17.08;30.84
75157;BME280;63736;50.076;8.198;2023-04-26T12:45:03;99601.75;;;17.09;30.80
75157;BME280;63736;50.076;8.198;2023-04-26T12:47:29;99612.34;;;17.19;30.31
75157;BME280;63736;50.076;8.198;2023-04-26T12:49:55;99612.03;;;17.22;30.90
75157;BME280;63736;50.076;8.198;2023-04-26T12:52:20;99604.09;;;17.29;30.83
75157;BME280;63736;50.076;8.198;2023-04-26T12:54:46;99600.72;;;17.35;30.15
75157;BME280;63736;50.076;8.198;2023-04-26T12:57:13;99601.53;;;17.44;30.16
75157;BME280;63736;50.076;8.198;2023-04-26T12:59:38;99594.78;;;17.40;29.29
75157;BME280;63736;50.076;8.198;2023-04-26T13:02:03;99605.28;;;17.26;29.63
75157;BME280;63736;50.076;8.198;2023-04-26T13:04:29;99603.59;;;17.09;29.52
75157;BME280;63736;50.076;8.198;2023-04-26T13:06:54;99605.78;;;16.97;29.54
75157;BME280;63736;50.076;8.198;2023-04-26T13:09:20;99600.00;;;16.67;29.51
75157;BME280;63736;50.076;8.198;2023-04-26T13:11:45;99601.31;;;16.38;29.31
75157;BME280;63736;50.076;8.198;2023-04-26T13:14:11;99602.63;;;16.26;29.91
75157;BME280;63736;50.076;8.198;2023-04-26T13:16:36;99608.03;;;16.26;29.70
75157;BME280;63736;50.076;8.198;2023-04-26T13:19:06;99610.72;;;16.34;30.05
75157;BME280;63736;50.076;8.198;2023-04-26T13:21:31;99605.34;;;16.42;30.05
75157;BME280;63736;50.076;8.198;2023-04-26T13:23:56;99605.88;;;16.54;30.20